sensor_id;sensor_type;location;lat;lon;timestamp;P1;durP1;ratioP1;P2;durP2;ratioP2
20637;SDS011;10478;49.004;8.470;2022-12-18T00:01:31;101.80;;;43.85;;
20637;SDS011;10478;49.004;8.470;2022-12-18T02:08:29;53.60;;;22.63;;
20637;SDS011;10478;49.004;8.470;2022-12-18T02:16:44;55.05;;;22.92;;
20637;SDS011;10478;49.004;8.470;2022-12-18T02:19:37;57.70;;;21.73;;
20637;SDS011;10478;49.004;8.470;2022-12-18T02:24:51;59.17;;;23.55;;
20637;SDS011;10478;49.004;8.470;2022-12-18T02:27:19;52.78;;;21.83;;
20637;SDS011;10478;49.004;8.470;2022-12-18T02:29:46;49.17;;;21.40;;
20637;SDS011;10478;49.004;8.470;2022-12-18T02:32:15;53.42;;;24.00;;
20637;SDS011;10478;49.004;8.470;2022-12-18T02:34:45;65.03;;;23.85;;
20637;SDS011;10478;49.004;8.470;2022-12-18T02:37:12;64.85;;;24.02;;
20637;SDS011;10478;49.004;8.470;2022-12-18T02:39:41;62.55;;;23.65;;
20637;SDS011;10478;49.004;8.470;2022-12-18T02:42:08;60.90;;;23.08;;
20637;SDS011;10478;49.004;8.470;2022-12-18T02:44:35;62.47;;;21.45;;
20637;SDS011;10478;49.004;8.470;2022-12-18T02:47:08;62.67;;;24.60;;
20637;SDS011;10478;49.004;8.470;2022-12-18T02:49:41;69.60;;;24.60;;
20637;SDS011;10478;49.004;8.470;2022-12-18T03:03:24;56.53;;;23.92;;
20637;SDS011;10478;49.004;8.470;2022-12-18T03:05:53;67.00;;;26.33;;
20637;SDS011;10478;49.004;8.470;2022-12-18T03:08:27;64.70;;;23.45;;
20637;SDS011;10478;49.004;8.470;2022-12-18T03:10:58;72.30;;;24.17;;
20637;SDS011;10478;49.004;8.470;2022-12-18T03:13:51;60.83;;;22.38;;
20637;SDS011;10478;49.004;8.470;2022-12-18T03:16:22;80.85;;;25.48;;
20637;SDS011;10478;49.004;8.470;2022-12-18T03:18:51;65.65;;;22.88;;
20637;SDS011;10478;49.004;8.470;2022-12-18T03:21:23;61.88;;;22.60;;
20637;SDS011;10478;49.004;8.470;2022-12-18T03:23:53;66.43;;;23.85;;
20637;SDS011;10478;49.004;8.470;2022-12-18T03:26:21;72.47;;;25.25;;
20637;SDS011;10478;49.004;8.470;2022-12-18T03:28:50;67.47;;;23.67;;
20637;SDS011;10478;49.004;8.470;2022-12-18T03:31:18;65.03;;;25.40;;
20637;SDS011;10478;49.004;8.470;2022-12-18T03:33:51;62.45;;;24.75;;
20637;SDS011;10478;49.004;8.470;2022-12-18T03:36:18;55.80;;;22.52;;
20637;SDS011;10478;49.004;8.470;2022-12-18T03:38:44;66.78;;;23.27;;
20637;SDS011;10478;49.004;8.470;2022-12-18T03:41:29;53.10;;;22.52;;
20637;SDS011;10478;49.004;8.470;2022-12-18T03:44:00;56.80;;;22.20;;
20637;SDS011;10478;49.004;8.470;2022-12-18T03:46:41;57.38;;;22.38;;
20637;SDS011;10478;49.004;8.470;2022-12-18T03:49:19;67.03;;;23.15;;
20637;SDS011;10478;49.004;8.470;2022-12-18T03:51:52;59.35;;;23.98;;
20637;SDS011;10478;49.004;8.470;2022-12-18T03:56:59;49.03;;;20.33;;
20637;SDS011;10478;49.004;8.470;2022-12-18T03:59:28;61.40;;;23.13;;
20637;SDS011;10478;49.004;8.470;2022-12-18T04:01:54;65.70;;;23.45;;
20637;SDS011;10478;49.004;8.470;2022-12-18T04:04:21;54.53;;;20.92;;
20637;SDS011;10478;49.004;8.470;2022-12-18T04:06:47;61.55;;;23.50;;
20637;SDS011;10478;49.004;8.470;2022-12-18T04:09:13;55.35;;;21.92;;
20637;SDS011;10478;49.004;8.470;2022-12-18T04:11:42;51.53;;;22.08;;
20637;SDS011;10478;49.004;8.470;2022-12-18T04:14:10;62.35;;;25.02;;
20637;SDS011;10478;49.004;8.470;2022-12-18T04:16:36;62.90;;;23.13;;
20637;SDS011;10478;49.004;8.470;2022-12-18T04:19:02;60.38;;;24.52;;
20637;SDS011;10478;49.004;8.470;2022-12-18T04:21:28;73.28;;;25.00;;
20637;SDS011;10478;49.004;8.470;2022-12-18T04:23:53;59.08;;;23.40;;
20637;SDS011;10478;49.004;8.470;2022-12-18T04:26:19;67.82;;;23.73;;
20637;SDS011;10478;49.004;8.470;2022-12-18T04:28:45;69.47;;;24.90;;
20637;SDS011;10478;49.004;8.470;2022-12-18T04:31:10;79.40;;;26.05;;
20637;SDS011;10478;49.004;8.470;2022-12-18T04:33:36;62.40;;;24.23;;
20637;SDS011;10478;49.004;8.470;2022-12-18T04:36:02;73.72;;;24.08;;
20637;SDS011;10478;49.004;8.470;2022-12-18T04:38:27;66.90;;;23.60;;
20637;SDS011;10478;49.004;8.470;2022-12-18T04:40:53;70.22;;;26.08;;
20637;SDS011;10478;49.004;8.470;2022-12-18T04:43:19;77.40;;;25.25;;
20637;SDS011;10478;49.004;8.470;2022-12-18T04:45:47;56.38;;;24.27;;
20637;SDS011;10478;49.004;8.470;2022-12-18T04:48:12;71.65;;;25.00;;
20637;SDS011;10478;49.004;8.470;2022-12-18T04:50:38;56.35;;;19.80;;
20637;SDS011;10478;49.004;8.470;2022-12-18T04:53:04;81.97;;;23.15;;
20637;SDS011;10478;49.004;8.470;2022-12-18T04:55:29;86.47;;;25.77;;
20637;SDS011;10478;49.004;8.470;2022-12-18T04:57:55;70.32;;;24.30;;
20637;SDS011;10478;49.004;8.470;2022-12-18T05:00:20;68.63;;;24.92;;
20637;SDS011;10478;49.004;8.470;2022-12-18T05:02:46;73.63;;;24.33;;
20637;SDS011;10478;49.004;8.470;2022-12-18T05:05:12;82.07;;;25.42;;
20637;SDS011;10478;49.004;8.470;2022-12-18T05:07:37;72.28;;;25.60;;
20637;SDS011;10478;49.004;8.470;2022-12-18T05:10:03;65.70;;;24.50;;
20637;SDS011;10478;49.004;8.470;2022-12-18T05:12:32;70.57;;;25.10;;
20637;SDS011;10478;49.004;8.470;2022-12-18T05:14:58;71.35;;;24.88;;
20637;SDS011;10478;49.004;8.470;2022-12-18T05:17:23;77.32;;;26.88;;
20637;SDS011;10478;49.004;8.470;2022-12-18T05:19:49;73.88;;;26.00;;
20637;SDS011;10478;49.004;8.470;2022-12-18T05:22:15;71.22;;;23.92;;
20637;SDS011;10478;49.004;8.470;2022-12-18T05:24:41;72.55;;;24.80;;
20637;SDS011;10478;49.004;8.470;2022-12-18T05:27:06;75.30;;;27.63;;
20637;SDS011;10478;49.004;8.470;2022-12-18T05:29:32;68.25;;;25.38;;
20637;SDS011;10478;49.004;8.470;2022-12-18T05:31:58;74.93;;;25.92;;
20637;SDS011;10478;49.004;8.470;2022-12-18T05:34:23;71.05;;;23.92;;
20637;SDS011;10478;49.004;8.470;2022-12-18T05:36:49;60.92;;;24.20;;
20637;SDS011;10478;49.004;8.470;2022-12-18T05:39:15;64.78;;;23.77;;
20637;SDS011;10478;49.004;8.470;2022-12-18T05:41:40;77.68;;;24.63;;
20637;SDS011;10478;49.004;8.470;2022-12-18T05:44:06;78.88;;;25.45;;
20637;SDS011;10478;49.004;8.470;2022-12-18T05:46:31;72.03;;;24.05;;
20637;SDS011;10478;49.004;8.470;2022-12-18T05:48:59;81.63;;;25.73;;
20637;SDS011;10478;49.004;8.470;2022-12-18T05:51:26;56.70;;;22.55;;
20637;SDS011;10478;49.004;8.470;2022-12-18T05:53:52;58.08;;;24.08;;
20637;SDS011;10478;49.004;8.470;2022-12-18T05:56:19;72.50;;;24.27;;
20637;SDS011;10478;49.004;8.470;2022-12-18T05:58:46;72.43;;;23.27;;
20637;SDS011;10478;49.004;8.470;2022-12-18T06:01:14;61.78;;;22.20;;
20637;SDS011;10478;49.004;8.470;2022-12-18T06:03:41;68.22;;;25.25;;
20637;SDS011;10478;49.004;8.470;2022-12-18T06:06:18;68.97;;;23.38;;
20637;SDS011;10478;49.004;8.470;2022-12-18T06:08:45;75.45;;;23.95;;
20637;SDS011;10478;49.004;8.470;2022-12-18T06:11:11;60.72;;;23.17;;
20637;SDS011;10478;49.004;8.470;2022-12-18T06:13:37;72.22;;;24.85;;
20637;SDS011;10478;49.004;8.470;2022-12-18T06:16:06;63.83;;;22.17;;
20637;SDS011;10478;49.004;8.470;2022-12-18T06:18:32;68.20;;;22.95;;
20637;SDS011;10478;49.004;8.470;2022-12-18T06:20:59;56.33;;;23.63;;
20637;SDS011;10478;49.004;8.470;2022-12-18T06:23:25;61.38;;;23.45;;
20637;SDS011;10478;49.004;8.470;2022-12-18T06:25:51;68.00;;;23.40;;
20637;SDS011;10478;49.004;8.470;2022-12-18T06:28:16;65.50;;;21.83;;
20637;SDS011;10478;49.004;8.470;2022-12-18T06:30:46;60.53;;;21.98;;
20637;SDS011;10478;49.004;8.470;2022-12-18T06:33:13;55.90;;;22.67;;
20637;SDS011;10478;49.004;8.470;2022-12-18T06:35:38;63.03;;;21.25;;
20637;SDS011;10478;49.004;8.470;2022-12-18T06:38:04;71.13;;;22.48;;
20637;SDS011;10478;49.004;8.470;2022-12-18T06:40:29;66.75;;;24.45;;
20637;SDS011;10478;49.004;8.470;2022-12-18T06:42:55;58.47;;;23.25;;
20637;SDS011;10478;49.004;8.470;2022-12-18T06:45:21;63.58;;;22.00;;
20637;SDS011;10478;49.004;8.470;2022-12-18T06:47:46;73.43;;;23.10;;
20637;SDS011;10478;49.004;8.470;2022-12-18T06:50:12;67.20;;;24.33;;
20637;SDS011;10478;49.004;8.470;2022-12-18T06:52:38;62.85;;;24.10;;
20637;SDS011;10478;49.004;8.470;2022-12-18T06:55:06;61.67;;;22.13;;
20637;SDS011;10478;49.004;8.470;2022-12-18T06:57:32;78.20;;;27.55;;
20637;SDS011;10478;49.004;8.470;2022-12-18T06:59:58;61.17;;;24.05;;
20637;SDS011;10478;49.004;8.470;2022-12-18T07:02:23;70.47;;;24.55;;
20637;SDS011;10478;49.004;8.470;2022-12-18T07:04:49;70.60;;;22.95;;
20637;SDS011;10478;49.004;8.470;2022-12-18T07:07:14;64.55;;;22.80;;
20637;SDS011;10478;49.004;8.470;2022-12-18T07:09:40;62.08;;;23.40;;
20637;SDS011;10478;49.004;8.470;2022-12-18T07:12:05;59.08;;;22.17;;
20637;SDS011;10478;49.004;8.470;2022-12-18T07:14:32;55.58;;;21.67;;
20637;SDS011;10478;49.004;8.470;2022-12-18T07:16:58;61.83;;;21.15;;
20637;SDS011;10478;49.004;8.470;2022-12-18T07:19:23;67.93;;;22.50;;
20637;SDS011;10478;49.004;8.470;2022-12-18T07:21:49;70.47;;;22.83;;
20637;SDS011;10478;49.004;8.470;2022-12-18T07:24:15;64.00;;;23.00;;
20637;SDS011;10478;49.004;8.470;2022-12-18T07:26:41;63.50;;;22.05;;
20637;SDS011;10478;49.004;8.470;2022-12-18T07:29:06;58.88;;;22.50;;
20637;SDS011;10478;49.004;8.470;2022-12-18T07:31:32;65.38;;;24.85;;
20637;SDS011;10478;49.004;8.470;2022-12-18T07:33:57;73.15;;;25.80;;
20637;SDS011;10478;49.004;8.470;2022-12-18T07:36:23;63.00;;;21.95;;
20637;SDS011;10478;49.004;8.470;2022-12-18T07:38:49;62.08;;;23.77;;
20637;SDS011;10478;49.004;8.470;2022-12-18T07:41:15;69.15;;;22.75;;
20637;SDS011;10478;49.004;8.470;2022-12-18T07:43:41;69.40;;;25.00;;
20637;SDS011;10478;49.004;8.470;2022-12-18T07:46:07;62.45;;;23.27;;
20637;SDS011;10478;49.004;8.470;2022-12-18T07:48:36;62.45;;;22.50;;
20637;SDS011;10478;49.004;8.470;2022-12-18T07:51:02;67.65;;;23.00;;
20637;SDS011;10478;49.004;8.470;2022-12-18T07:53:29;73.50;;;25.55;;
20637;SDS011;10478;49.004;8.470;2022-12-18T07:55:59;74.32;;;26.15;;
20637;SDS011;10478;49.004;8.470;2022-12-18T07:58:27;71.20;;;24.38;;
20637;SDS011;10478;49.004;8.470;2022-12-18T08:00:52;63.63;;;22.08;;
20637;SDS011;10478;49.004;8.470;2022-12-18T08:03:18;63.22;;;22.35;;
20637;SDS011;10478;49.004;8.470;2022-12-18T08:05:43;76.75;;;25.65;;
20637;SDS011;10478;49.004;8.470;2022-12-18T08:08:09;70.63;;;24.83;;
20637;SDS011;10478;49.004;8.470;2022-12-18T08:10:35;72.07;;;25.60;;
20637;SDS011;10478;49.004;8.470;2022-12-18T08:13:00;70.30;;;25.48;;
20637;SDS011;10478;49.004;8.470;2022-12-18T08:15:25;66.25;;;25.42;;
20637;SDS011;10478;49.004;8.470;2022-12-18T08:17:51;65.50;;;24.63;;
20637;SDS011;10478;49.004;8.470;2022-12-18T08:20:17;64.82;;;24.48;;
20637;SDS011;10478;49.004;8.470;2022-12-18T08:22:43;68.45;;;25.08;;
20637;SDS011;10478;49.004;8.470;2022-12-18T08:28:14;68.82;;;24.20;;
20637;SDS011;10478;49.004;8.470;2022-12-18T08:30:39;68.90;;;24.27;;
20637;SDS011;10478;49.004;8.470;2022-12-18T08:33:05;64.85;;;22.17;;
20637;SDS011;10478;49.004;8.470;2022-12-18T08:40:41;55.10;;;21.58;;
20637;SDS011;10478;49.004;8.470;2022-12-18T08:43:07;60.28;;;23.58;;
20637;SDS011;10478;49.004;8.470;2022-12-18T08:48:18;69.03;;;23.27;;
20637;SDS011;10478;49.004;8.470;2022-12-18T08:50:55;59.25;;;24.42;;
20637;SDS011;10478;49.004;8.470;2022-12-18T08:53:21;73.68;;;23.88;;
20637;SDS011;10478;49.004;8.470;2022-12-18T08:55:50;58.20;;;24.52;;
20637;SDS011;10478;49.004;8.470;2022-12-18T08:58:15;75.97;;;24.75;;
20637;SDS011;10478;49.004;8.470;2022-12-18T09:00:41;85.20;;;29.05;;
20637;SDS011;10478;49.004;8.470;2022-12-18T09:03:13;78.63;;;25.95;;
20637;SDS011;10478;49.004;8.470;2022-12-18T09:05:43;83.68;;;29.92;;
20637;SDS011;10478;49.004;8.470;2022-12-18T09:08:08;76.60;;;26.30;;
20637;SDS011;10478;49.004;8.470;2022-12-18T09:10:40;81.25;;;29.27;;
20637;SDS011;10478;49.004;8.470;2022-12-18T09:13:07;76.65;;;28.17;;
20637;SDS011;10478;49.004;8.470;2022-12-18T09:15:32;79.20;;;26.58;;
20637;SDS011;10478;49.004;8.470;2022-12-18T09:17:57;81.28;;;27.77;;
20637;SDS011;10478;49.004;8.470;2022-12-18T09:20:23;75.68;;;29.90;;
20637;SDS011;10478;49.004;8.470;2022-12-18T09:22:49;75.45;;;27.25;;
20637;SDS011;10478;49.004;8.470;2022-12-18T09:28:03;70.13;;;24.67;;
20637;SDS011;10478;49.004;8.470;2022-12-18T09:30:29;75.78;;;27.45;;
20637;SDS011;10478;49.004;8.470;2022-12-18T09:32:55;73.32;;;26.45;;
20637;SDS011;10478;49.004;8.470;2022-12-18T09:35:21;76.05;;;28.27;;
20637;SDS011;10478;49.004;8.470;2022-12-18T09:37:46;76.93;;;27.80;;
20637;SDS011;10478;49.004;8.470;2022-12-18T09:40:22;72.60;;;26.77;;
20637;SDS011;10478;49.004;8.470;2022-12-18T09:42:51;77.40;;;26.58;;
20637;SDS011;10478;49.004;8.470;2022-12-18T09:45:19;69.72;;;26.13;;
20637;SDS011;10478;49.004;8.470;2022-12-18T09:47:45;62.90;;;25.80;;
20637;SDS011;10478;49.004;8.470;2022-12-18T09:50:31;87.03;;;30.17;;
20637;SDS011;10478;49.004;8.470;2022-12-18T09:53:06;80.65;;;25.98;;
20637;SDS011;10478;49.004;8.470;2022-12-18T09:55:38;75.38;;;26.55;;
20637;SDS011;10478;49.004;8.470;2022-12-18T09:58:07;83.45;;;29.75;;
20637;SDS011;10478;49.004;8.470;2022-12-18T10:00:54;71.30;;;27.20;;
20637;SDS011;10478;49.004;8.470;2022-12-18T10:03:20;88.38;;;28.63;;
20637;SDS011;10478;49.004;8.470;2022-12-18T10:08:43;80.95;;;26.20;;
20637;SDS011;10478;49.004;8.470;2022-12-18T10:11:22;70.57;;;26.40;;
20637;SDS011;10478;49.004;8.470;2022-12-18T10:13:57;65.53;;;25.65;;
20637;SDS011;10478;49.004;8.470;2022-12-18T10:16:51;65.03;;;24.98;;
20637;SDS011;10478;49.004;8.470;2022-12-18T10:19:24;67.88;;;27.60;;
20637;SDS011;10478;49.004;8.470;2022-12-18T11:06:52;71.88;;;23.95;;
20637;SDS011;10478;49.004;8.470;2022-12-18T11:09:22;67.45;;;25.55;;
20637;SDS011;10478;49.004;8.470;2022-12-18T11:11:50;112.15;;;37.10;;
20637;SDS011;10478;49.004;8.470;2022-12-18T11:16:50;98.82;;;37.17;;
20637;SDS011;10478;49.004;8.470;2022-12-18T11:19:28;86.85;;;29.70;;
20637;SDS011;10478;49.004;8.470;2022-12-18T11:22:00;80.90;;;28.48;;
20637;SDS011;10478;49.004;8.470;2022-12-18T11:26:55;62.78;;;24.20;;
20637;SDS011;10478;49.004;8.470;2022-12-18T11:29:36;73.85;;;28.70;;
20637;SDS011;10478;49.004;8.470;2022-12-18T11:34:41;67.00;;;24.42;;
20637;SDS011;10478;49.004;8.470;2022-12-18T11:37:10;73.47;;;26.02;;
20637;SDS011;10478;49.004;8.470;2022-12-18T11:45:02;60.63;;;22.75;;
20637;SDS011;10478;49.004;8.470;2022-12-18T11:50:21;74.75;;;25.50;;
20637;SDS011;10478;49.004;8.470;2022-12-18T11:52:49;65.88;;;25.70;;
20637;SDS011;10478;49.004;8.470;2022-12-18T11:55:15;74.47;;;29.08;;
20637;SDS011;10478;49.004;8.470;2022-12-18T12:00:23;72.35;;;29.00;;
20637;SDS011;10478;49.004;8.470;2022-12-18T12:14:01;69.55;;;23.90;;
20637;SDS011;10478;49.004;8.470;2022-12-18T12:16:42;71.35;;;24.02;;
20637;SDS011;10478;49.004;8.470;2022-12-18T12:19:35;67.72;;;25.58;;
20637;SDS011;10478;49.004;8.470;2022-12-18T12:30:29;69.07;;;25.08;;
20637;SDS011;10478;49.004;8.470;2022-12-18T12:38:49;76.80;;;26.23;;
20637;SDS011;10478;49.004;8.470;2022-12-18T12:41:21;67.88;;;26.20;;
20637;SDS011;10478;49.004;8.470;2022-12-18T12:44:09;77.95;;;26.50;;
20637;SDS011;10478;49.004;8.470;2022-12-18T12:46:39;85.30;;;28.30;;
20637;SDS011;10478;49.004;8.470;2022-12-18T12:49:14;67.25;;;24.95;;
20637;SDS011;10478;49.004;8.470;2022-12-18T12:51:43;59.63;;;24.63;;
20637;SDS011;10478;49.004;8.470;2022-12-18T12:54:15;65.38;;;24.95;;
20637;SDS011;10478;49.004;8.470;2022-12-18T12:56:49;63.30;;;24.60;;
20637;SDS011;10478;49.004;8.470;2022-12-18T13:02:28;66.70;;;26.83;;
20637;SDS011;10478;49.004;8.470;2022-12-18T13:07:38;71.32;;;29.20;;
20637;SDS011;10478;49.004;8.470;2022-12-18T13:12:54;65.60;;;25.15;;
20637;SDS011;10478;49.004;8.470;2022-12-18T13:15:22;75.70;;;24.88;;
20637;SDS011;10478;49.004;8.470;2022-12-18T13:17:48;65.72;;;24.83;;
20637;SDS011;10478;49.004;8.470;2022-12-18T13:20:14;64.60;;;26.50;;
20637;SDS011;10478;49.004;8.470;2022-12-18T13:22:44;60.90;;;25.05;;
20637;SDS011;10478;49.004;8.470;2022-12-18T13:25:31;69.43;;;25.35;;
20637;SDS011;10478;49.004;8.470;2022-12-18T13:33:50;58.85;;;24.95;;
20637;SDS011;10478;49.004;8.470;2022-12-18T13:36:13;74.28;;;27.73;;
20637;SDS011;10478;49.004;8.470;2022-12-18T13:39:10;66.78;;;26.73;;
20637;SDS011;10478;49.004;8.470;2022-12-18T13:41:46;60.63;;;24.65;;
20637;SDS011;10478;49.004;8.470;2022-12-18T13:50:04;77.65;;;26.88;;
20637;SDS011;10478;49.004;8.470;2022-12-18T13:52:36;75.95;;;27.27;;
20637;SDS011;10478;49.004;8.470;2022-12-18T13:55:04;77.97;;;27.63;;
20637;SDS011;10478;49.004;8.470;2022-12-18T13:57:33;78.03;;;27.35;;
20637;SDS011;10478;49.004;8.470;2022-12-18T14:05:26;73.43;;;26.85;;
20637;SDS011;10478;49.004;8.470;2022-12-18T14:07:53;70.00;;;27.42;;
20637;SDS011;10478;49.004;8.470;2022-12-18T14:10:19;69.18;;;26.90;;
20637;SDS011;10478;49.004;8.470;2022-12-18T14:12:45;57.67;;;24.73;;
20637;SDS011;10478;49.004;8.470;2022-12-18T14:18:24;65.15;;;25.50;;
20637;SDS011;10478;49.004;8.470;2022-12-18T14:20:52;76.03;;;25.30;;
20637;SDS011;10478;49.004;8.470;2022-12-18T14:23:28;61.58;;;25.83;;
20637;SDS011;10478;49.004;8.470;2022-12-18T15:26:27;68.05;;;26.15;;
20637;SDS011;10478;49.004;8.470;2022-12-18T15:29:02;67.47;;;26.50;;
20637;SDS011;10478;49.004;8.470;2022-12-18T15:31:29;63.70;;;25.35;;
20637;SDS011;10478;49.004;8.470;2022-12-18T15:34:08;68.75;;;29.40;;
20637;SDS011;10478;49.004;8.470;2022-12-18T16:15:23;92.60;;;42.42;;
20637;SDS011;10478;49.004;8.470;2022-12-18T16:17:49;95.32;;;40.10;;
20637;SDS011;10478;49.004;8.470;2022-12-18T16:20:16;90.35;;;38.75;;
20637;SDS011;10478;49.004;8.470;2022-12-18T16:22:44;88.97;;;34.83;;
20637;SDS011;10478;49.004;8.470;2022-12-18T16:25:29;73.45;;;29.13;;
20637;SDS011;10478;49.004;8.470;2022-12-18T16:56:55;70.50;;;28.50;;
20637;SDS011;10478;49.004;8.470;2022-12-18T16:59:21;67.13;;;26.48;;
20637;SDS011;10478;49.004;8.470;2022-12-18T17:01:48;71.43;;;26.63;;
20637;SDS011;10478;49.004;8.470;2022-12-18T17:33:41;82.75;;;29.02;;
20637;SDS011;10478;49.004;8.470;2022-12-18T17:36:07;76.80;;;31.02;;
20637;SDS011;10478;49.004;8.470;2022-12-18T17:38:33;70.85;;;29.90;;
20637;SDS011;10478;49.004;8.470;2022-12-18T17:41:04;80.43;;;29.40;;
20637;SDS011;10478;49.004;8.470;2022-12-18T17:43:31;77.18;;;28.80;;
20637;SDS011;10478;49.004;8.470;2022-12-18T17:46:00;69.25;;;26.67;;
20637;SDS011;10478;49.004;8.470;2022-12-18T17:48:27;71.00;;;29.20;;
20637;SDS011;10478;49.004;8.470;2022-12-18T17:50:53;83.63;;;30.02;;
20637;SDS011;10478;49.004;8.470;2022-12-18T17:53:18;79.18;;;30.13;;
20637;SDS011;10478;49.004;8.470;2022-12-18T17:55:52;74.18;;;28.20;;
20637;SDS011;10478;49.004;8.470;2022-12-18T17:58:18;78.13;;;29.20;;
20637;SDS011;10478;49.004;8.470;2022-12-18T18:00:45;77.43;;;28.30;;
20637;SDS011;10478;49.004;8.470;2022-12-18T18:03:14;81.32;;;28.77;;
20637;SDS011;10478;49.004;8.470;2022-12-18T18:05:40;70.13;;;27.15;;
20637;SDS011;10478;49.004;8.470;2022-12-18T18:08:05;80.75;;;29.98;;
20637;SDS011;10478;49.004;8.470;2022-12-18T18:10:37;80.85;;;30.30;;
20637;SDS011;10478;49.004;8.470;2022-12-18T18:13:04;79.63;;;30.33;;
20637;SDS011;10478;49.004;8.470;2022-12-18T18:23:33;77.75;;;26.17;;
20637;SDS011;10478;49.004;8.470;2022-12-18T18:26:05;79.53;;;27.92;;
20637;SDS011;10478;49.004;8.470;2022-12-18T18:28:32;73.50;;;28.83;;
20637;SDS011;10478;49.004;8.470;2022-12-18T18:31:00;79.95;;;28.98;;
20637;SDS011;10478;49.004;8.470;2022-12-18T18:33:31;81.88;;;29.77;;
20637;SDS011;10478;49.004;8.470;2022-12-18T18:35:57;65.90;;;26.85;;
20637;SDS011;10478;49.004;8.470;2022-12-18T18:38:22;94.22;;;34.20;;
20637;SDS011;10478;49.004;8.470;2022-12-18T18:40:48;125.65;;;43.80;;
20637;SDS011;10478;49.004;8.470;2022-12-18T18:43:18;118.82;;;40.30;;
20637;SDS011;10478;49.004;8.470;2022-12-18T18:45:43;95.70;;;31.13;;
20637;SDS011;10478;49.004;8.470;2022-12-18T18:48:09;91.65;;;31.17;;
20637;SDS011;10478;49.004;8.470;2022-12-18T18:50:34;80.40;;;29.08;;
20637;SDS011;10478;49.004;8.470;2022-12-18T18:53:00;82.15;;;30.10;;
20637;SDS011;10478;49.004;8.470;2022-12-18T18:58:00;73.20;;;29.55;;
20637;SDS011;10478;49.004;8.470;2022-12-18T19:08:23;80.78;;;29.50;;
20637;SDS011;10478;49.004;8.470;2022-12-18T19:16:36;91.45;;;31.70;;
20637;SDS011;10478;49.004;8.470;2022-12-18T19:57:49;86.32;;;30.48;;
20637;SDS011;10478;49.004;8.470;2022-12-18T20:00:15;92.07;;;32.13;;
20637;SDS011;10478;49.004;8.470;2022-12-18T20:02:41;98.20;;;31.15;;
20637;SDS011;10478;49.004;8.470;2022-12-18T20:05:10;115.47;;;35.22;;
20637;SDS011;10478;49.004;8.470;2022-12-18T20:07:36;91.07;;;35.15;;
20637;SDS011;10478;49.004;8.470;2022-12-18T20:10:05;121.78;;;39.67;;
20637;SDS011;10478;49.004;8.470;2022-12-18T20:12:32;85.85;;;30.55;;
20637;SDS011;10478;49.004;8.470;2022-12-18T20:20:08;107.28;;;34.15;;
20637;SDS011;10478;49.004;8.470;2022-12-18T20:22:35;98.20;;;33.72;;
20637;SDS011;10478;49.004;8.470;2022-12-18T20:25:00;92.88;;;31.10;;
20637;SDS011;10478;49.004;8.470;2022-12-18T20:27:26;84.13;;;31.60;;
20637;SDS011;10478;49.004;8.470;2022-12-18T20:29:51;85.25;;;33.22;;
20637;SDS011;10478;49.004;8.470;2022-12-18T20:32:17;104.75;;;33.45;;
20637;SDS011;10478;49.004;8.470;2022-12-18T20:34:42;94.20;;;33.80;;
20637;SDS011;10478;49.004;8.470;2022-12-18T20:37:08;89.35;;;31.92;;
20637;SDS011;10478;49.004;8.470;2022-12-18T20:39:34;99.03;;;31.55;;
20637;SDS011;10478;49.004;8.470;2022-12-18T20:41:59;86.95;;;33.47;;
20637;SDS011;10478;49.004;8.470;2022-12-18T20:44:25;86.22;;;32.08;;
20637;SDS011;10478;49.004;8.470;2022-12-18T20:46:51;86.93;;;32.80;;
20637;SDS011;10478;49.004;8.470;2022-12-18T20:49:18;82.60;;;31.80;;
20637;SDS011;10478;49.004;8.470;2022-12-18T20:51:44;86.32;;;30.83;;
20637;SDS011;10478;49.004;8.470;2022-12-18T20:54:10;94.05;;;32.00;;
20637;SDS011;10478;49.004;8.470;2022-12-18T20:56:35;90.03;;;30.67;;
20637;SDS011;10478;49.004;8.470;2022-12-18T20:59:02;92.88;;;34.28;;
20637;SDS011;10478;49.004;8.470;2022-12-18T21:01:28;91.85;;;31.48;;
20637;SDS011;10478;49.004;8.470;2022-12-18T21:03:54;98.00;;;31.92;;
20637;SDS011;10478;49.004;8.470;2022-12-18T21:06:20;86.20;;;30.90;;
20637;SDS011;10478;49.004;8.470;2022-12-18T21:08:47;80.20;;;30.23;;
20637;SDS011;10478;49.004;8.470;2022-12-18T21:14:04;80.53;;;30.48;;
20637;SDS011;10478;49.004;8.470;2022-12-18T21:16:31;88.40;;;30.33;;
20637;SDS011;10478;49.004;8.470;2022-12-18T21:18:56;83.18;;;29.25;;
20637;SDS011;10478;49.004;8.470;2022-12-18T21:21:22;76.18;;;30.02;;
20637;SDS011;10478;49.004;8.470;2022-12-18T21:23:48;86.95;;;30.05;;
20637;SDS011;10478;49.004;8.470;2022-12-18T21:26:19;84.07;;;30.90;;
20637;SDS011;10478;49.004;8.470;2022-12-18T21:28:57;80.28;;;30.40;;
20637;SDS011;10478;49.004;8.470;2022-12-18T21:31:29;82.45;;;32.45;;
20637;SDS011;10478;49.004;8.470;2022-12-18T21:33:57;83.47;;;29.13;;
20637;SDS011;10478;49.004;8.470;2022-12-18T21:36:23;82.45;;;30.55;;
20637;SDS011;10478;49.004;8.470;2022-12-18T21:38:58;89.35;;;29.65;;
20637;SDS011;10478;49.004;8.470;2022-12-18T21:44:56;83.38;;;32.03;;
20637;SDS011;10478;49.004;8.470;2022-12-18T21:53:59;90.90;;;34.15;;
20637;SDS011;10478;49.004;8.470;2022-12-18T22:00:02;77.13;;;29.20;;
20637;SDS011;10478;49.004;8.470;2022-12-18T22:02:52;96.18;;;34.53;;
20637;SDS011;10478;49.004;8.470;2022-12-18T22:05:50;88.82;;;32.10;;
20637;SDS011;10478;49.004;8.470;2022-12-18T22:19:04;93.53;;;32.35;;
20637;SDS011;10478;49.004;8.470;2022-12-18T22:26:13;81.82;;;33.25;;
20637;SDS011;10478;49.004;8.470;2022-12-18T22:36:24;85.97;;;32.72;;
20637;SDS011;10478;49.004;8.470;2022-12-18T22:51:59;82.50;;;30.80;;
20637;SDS011;10478;49.004;8.470;2022-12-18T23:28:21;86.80;;;31.70;;
20637;SDS011;10478;49.004;8.470;2022-12-18T23:30:47;77.35;;;30.45;;
20637;SDS011;10478;49.004;8.470;2022-12-18T23:33:12;89.38;;;28.83;;
20637;SDS011;10478;49.004;8.470;2022-12-18T23:40:48;76.95;;;32.03;;
20637;SDS011;10478;49.004;8.470;2022-12-18T23:43:14;67.80;;;28.80;;
20637;SDS011;10478;49.004;8.470;2022-12-18T23:45:39;76.07;;;30.88;;
20637;SDS011;10478;49.004;8.470;2022-12-18T23:48:05;75.13;;;31.23;;
20637;SDS011;10478;49.004;8.470;2022-12-18T23:50:34;67.22;;;29.50;;
20637;SDS011;10478;49.004;8.470;2022-12-18T23:52:59;73.78;;;29.65;;
